createdAt,value
2018-02-17T00:02:06.675Z,95718.67
2018-02-17T00:05:10.794Z,95717.52
2018-02-17T00:08:14.123Z,95726.36
2018-02-17T00:11:17.736Z,95722.42
2018-02-17T00:14:21.860Z,95713.22
2018-02-17T00:17:25.219Z,95712.82
2018-02-17T00:20:28.591Z,95716.11
2018-02-17T00:23:33.453Z,95705.67
2018-02-17T00:26:38.494Z,95695.72
2018-02-17T00:29:42.631Z,95698.86
2018-02-17T00:32:45.996Z,95706.47
2018-02-17T00:35:49.349Z,95705.83
2018-02-17T00:38:52.679Z,95703.73
2018-02-17T00:41:56.826Z,95703.33
2018-02-17T00:45:00.243Z,95700.98
2018-02-17T00:48:03.557Z,95699.36
2018-02-17T00:51:09.033Z,95699.77
2018-02-17T00:54:12.411Z,95708.55
2018-02-17T00:57:32.975Z,95707.03
2018-02-17T01:00:39.705Z,95695.58
2018-02-17T01:03:43.044Z,95693.09
2018-02-17T01:06:46.573Z,95687.67
2018-02-17T01:09:50.718Z,95696.50
2018-02-17T01:12:55.795Z,95688.19
2018-02-17T01:15:59.163Z,95685.66
2018-02-17T01:19:02.569Z,95682.81
2018-02-17T01:22:06.664Z,95688.94
2018-02-17T01:25:10.010Z,95680.53
2018-02-17T01:28:13.383Z,95653.66
2018-02-17T01:31:17.487Z,95660.98
2018-02-17T01:34:20.930Z,95668.23
2018-02-17T01:37:24.265Z,95655.31
2018-02-17T01:40:27.617Z,95652.26
2018-02-17T01:43:30.982Z,95642.41
2018-02-17T01:46:34.320Z,95641.39
2018-02-17T01:49:37.697Z,95641.41
2018-02-17T01:52:41.057Z,95640.63
2018-02-17T01:55:45.212Z,95629.46
2018-02-17T01:58:49.354Z,95626.96
2018-02-17T02:01:52.736Z,95617.48
2018-02-17T02:04:57.598Z,95606.27
2018-02-17T02:08:00.961Z,95601.94
2018-02-17T02:11:04.305Z,95604.31
2018-02-17T02:14:07.637Z,95603.22
2018-02-17T02:17:11.513Z,95591.05
2018-02-17T02:20:14.959Z,95591.92
2018-02-17T02:23:18.468Z,95592.62
2018-02-17T02:26:21.810Z,95582.52
2018-02-17T02:29:26.881Z,95573.73
2018-02-17T02:32:30.243Z,95570.77
2018-02-17T02:35:34.473Z,95572.68
2018-02-17T02:38:38.264Z,95566.15
2018-02-17T02:41:43.013Z,95559.77
2018-02-17T02:44:46.337Z,95560.92
2018-02-17T02:47:49.685Z,95555.98
2018-02-17T02:50:53.838Z,95545.66
2018-02-17T02:53:57.170Z,95543.96
2018-02-17T02:57:00.536Z,95531.60
2018-02-17T03:00:04.763Z,95527.27
2018-02-17T03:03:08.143Z,95513.75
2018-02-17T03:06:13.561Z,95514.94
2018-02-17T03:09:16.914Z,95515.58
2018-02-17T03:12:20.249Z,95515.69
2018-02-17T03:15:23.607Z,95501.69
2018-02-17T03:18:26.962Z,95490.56
2018-02-17T03:21:30.372Z,95480.67
2018-02-17T03:24:34.483Z,95479.56
2018-02-17T03:27:38.593Z,95475.64
2018-02-17T03:30:41.966Z,95467.52
2018-02-17T03:33:45.297Z,95451.04
2018-02-17T03:36:49.393Z,95445.28
2018-02-17T03:39:52.737Z,95429.58
2018-02-17T03:42:56.109Z,95425.45
2018-02-17T03:45:59.473Z,95438.57
2018-02-17T03:49:02.808Z,95455.97
2018-02-17T03:52:06.179Z,95455.97
2018-02-17T03:55:09.518Z,95453.09
2018-02-17T03:58:14.885Z,95420.66
2018-02-17T04:01:18.217Z,95410.29
2018-02-17T04:04:21.553Z,95418.84
2018-02-17T04:07:24.920Z,95403.94
2018-02-17T04:10:29.197Z,95409.00
2018-02-17T04:13:32.541Z,95421.41
2018-02-17T04:16:35.874Z,95419.50
2018-02-17T04:19:39.994Z,95415.58
2018-02-17T04:22:43.357Z,95415.80
2018-02-17T04:25:46.709Z,95432.14
2018-02-17T04:28:50.048Z,95430.72
2018-02-17T04:31:53.374Z,95432.82
2018-02-17T04:34:57.478Z,95419.67
2018-02-17T04:38:00.800Z,95409.25
2018-02-17T04:41:05.089Z,95404.92
2018-02-17T04:44:10.812Z,95391.69
2018-02-17T04:47:14.515Z,95391.86
2018-02-17T04:50:23.510Z,95376.40
2018-02-17T04:57:15.752Z,95363.34
2018-02-17T05:00:19.774Z,95358.94
2018-02-17T05:03:27.224Z,95361.28
2018-02-17T05:06:45.465Z,95365.47
2018-02-17T05:09:49.010Z,95353.98
2018-02-17T05:12:52.267Z,95336.98
2018-02-17T05:15:55.704Z,95335.75
2018-02-17T05:23:01.134Z,95318.05
2018-02-17T05:26:04.411Z,95309.16
2018-02-17T05:29:10.605Z,95309.06
2018-02-17T05:32:28.766Z,95307.45
2018-02-17T05:35:34.828Z,95290.86
2018-02-17T05:38:48.004Z,95288.08
2018-02-17T05:42:01.957Z,95282.87
2018-02-17T05:45:05.243Z,95286.81
2018-02-17T05:48:18.705Z,95285.09
2018-02-17T05:51:21.974Z,95290.18
2018-02-17T05:54:26.492Z,95282.48
2018-02-17T05:57:30.525Z,95279.10
2018-02-17T06:00:33.798Z,95283.00
2018-02-17T06:03:37.069Z,95270.06
2018-02-17T06:06:40.400Z,95262.48
2018-02-17T06:09:44.435Z,95267.72
2018-02-17T06:12:47.706Z,95271.23
2018-02-17T06:15:51.759Z,95269.25
2018-02-17T06:22:23.520Z,95258.18
2018-02-17T06:25:27.558Z,95248.77
2018-02-17T06:28:30.830Z,95231.80
2018-02-17T06:31:35.054Z,95218.61
2018-02-17T06:34:39.081Z,95213.00
2018-02-17T06:37:42.358Z,95225.16
2018-02-17T06:40:45.896Z,95244.34
2018-02-17T06:43:50.044Z,95230.23
2018-02-17T06:46:54.829Z,95220.29
2018-02-17T06:49:58.158Z,95202.80
2018-02-17T06:53:01.432Z,95186.34
2018-02-17T06:56:04.711Z,95184.11
2018-02-17T06:59:08.010Z,95202.54
2018-02-17T07:02:11.320Z,95197.58
2018-02-17T07:05:14.562Z,95179.41
2018-02-17T07:08:17.906Z,95173.41
2018-02-17T07:11:21.175Z,95182.41
2018-02-17T07:14:31.890Z,95163.34
2018-02-17T07:17:36.753Z,95144.53
2018-02-17T07:20:40.033Z,95139.04
2018-02-17T07:23:43.425Z,95154.57
2018-02-17T07:26:46.699Z,95164.26
2018-02-17T07:29:49.985Z,95146.63
2018-02-17T07:32:53.297Z,95151.06
2018-02-17T07:35:56.694Z,95140.48
2018-02-17T07:39:00.713Z,95140.08
2018-02-17T07:42:03.994Z,95129.11
2018-02-17T07:45:08.149Z,95105.99
2018-02-17T07:48:11.455Z,95099.98
2018-02-17T07:51:14.862Z,95102.97
2018-02-17T07:54:18.185Z,95106.39
2018-02-17T07:57:21.538Z,95115.78
2018-02-17T08:00:24.802Z,95113.81
2018-02-17T08:03:28.858Z,95138.66
2018-02-17T08:06:32.125Z,95153.26
2018-02-17T08:09:36.168Z,95141.27
2018-02-17T08:12:39.465Z,95134.45
2018-02-17T08:15:42.726Z,95141.00
2018-02-17T08:18:47.373Z,95142.30
2018-02-17T08:21:50.870Z,95150.92
2018-02-17T08:25:14.658Z,95137.08
2018-02-17T08:28:20.918Z,95113.55
2018-02-17T08:31:24.900Z,95102.84
2018-02-17T08:34:28.403Z,95093.97
2018-02-17T08:37:31.947Z,95089.25
2018-02-17T08:40:35.269Z,95073.95
2018-02-17T08:43:38.543Z,95068.06
2018-02-17T08:46:41.824Z,95065.07
2018-02-17T08:49:45.844Z,95051.57
2018-02-17T08:52:49.150Z,95033.51
2018-02-17T08:55:52.453Z,95023.73
2018-02-17T08:58:55.723Z,94990.80
2018-02-17T09:01:59.757Z,94967.52
2018-02-17T09:05:03.045Z,94980.73
2018-02-17T09:08:06.350Z,94999.32
2018-02-17T09:11:09.648Z,94991.71
2018-02-17T09:14:12.923Z,94978.23
2018-02-17T09:17:16.495Z,94965.52
2018-02-17T09:20:19.869Z,94959.45
2018-02-17T09:23:23.155Z,94958.27
2018-02-17T09:26:26.457Z,94942.38
2018-02-17T09:29:29.730Z,94934.17
2018-02-17T09:32:33.757Z,94941.61
2018-02-17T09:35:37.081Z,94937.16
2018-02-17T09:38:40.353Z,94956.83
2018-02-17T09:41:43.613Z,94958.77
2018-02-17T09:44:46.960Z,94973.27
2018-02-17T09:47:50.537Z,94967.67
2018-02-17T09:50:54.801Z,94962.41
2018-02-17T09:53:59.391Z,94973.98
2018-02-17T09:57:03.000Z,94993.55
2018-02-17T10:00:06.602Z,95001.09
2018-02-17T10:03:10.173Z,94997.95
2018-02-17T10:06:14.686Z,94987.78
2018-02-17T10:09:17.962Z,94996.25
2018-02-17T10:12:21.235Z,94998.70
2018-02-17T10:15:24.546Z,95001.37
2018-02-17T10:18:28.601Z,95001.50
2018-02-17T10:21:32.670Z,94996.53
2018-02-17T10:24:35.975Z,94997.49
2018-02-17T10:27:39.274Z,94984.84
2018-02-17T10:30:42.549Z,94990.08
2018-02-17T10:33:46.789Z,95016.42
2018-02-17T10:36:50.105Z,95020.99
2018-02-17T10:39:53.375Z,95009.50
2018-02-17T10:42:57.693Z,94986.19
2018-02-17T10:46:00.985Z,94993.08
2018-02-17T10:49:04.574Z,94989.38
2018-02-17T10:52:08.627Z,94997.48
2018-02-17T10:55:12.015Z,94987.89
2018-02-17T10:58:15.309Z,94984.89
2018-02-17T11:01:18.600Z,94978.31
2018-02-17T11:04:22.221Z,94969.27
2018-02-17T11:07:25.501Z,94962.82
2018-02-17T11:10:29.644Z,94963.86
2018-02-17T11:13:33.746Z,94963.03
2018-02-17T11:16:37.173Z,94964.20
2018-02-17T11:19:40.445Z,94960.88
2018-02-17T11:22:43.765Z,94954.58
2018-02-17T11:25:47.041Z,94948.08
2018-02-17T11:28:50.446Z,94944.64
2018-02-17T11:31:53.731Z,94940.30
2018-02-17T11:34:59.215Z,94929.84
2018-02-17T11:38:02.500Z,94920.80
2018-02-17T11:41:05.777Z,94914.92
2018-02-17T11:44:09.200Z,94903.54
2018-02-17T11:47:12.702Z,94899.54
2018-02-17T11:50:16.275Z,94894.11
2018-02-17T11:53:19.811Z,94892.48
2018-02-17T11:56:23.106Z,94882.96
2018-02-17T11:59:27.262Z,94871.56
2018-02-17T12:02:30.520Z,94868.90
2018-02-17T12:05:33.854Z,94866.36
2018-02-17T12:08:37.133Z,94860.34
2018-02-17T12:11:40.400Z,94861.05
2018-02-17T12:14:43.755Z,94847.41
2018-02-17T12:17:48.020Z,94849.72
2018-02-17T12:20:51.302Z,94852.19
2018-02-17T12:23:55.342Z,94866.98
2018-02-17T12:26:58.641Z,94870.13
2018-02-17T12:30:02.028Z,94857.36
2018-02-17T12:33:05.315Z,94863.34
2018-02-17T12:36:09.440Z,94869.48
2018-02-17T12:39:13.534Z,94867.45
2018-02-17T12:42:17.600Z,94872.37
2018-02-17T12:45:20.879Z,94871.17
2018-02-17T12:48:24.272Z,94855.57
2018-02-17T12:51:30.124Z,94858.28
2018-02-17T12:54:34.239Z,94850.19
2018-02-17T12:57:37.460Z,94853.19
2018-02-17T13:00:40.731Z,94855.69
2018-02-17T13:03:44.780Z,94858.30
2018-02-17T13:06:48.050Z,94858.87
2018-02-17T13:09:52.094Z,94870.84
2018-02-17T13:12:55.378Z,94877.86
2018-02-17T13:15:59.327Z,94875.22
2018-02-17T13:19:02.626Z,94871.75
2018-02-17T13:22:05.895Z,94886.84
2018-02-17T13:25:09.187Z,94881.23
2018-02-17T13:28:25.168Z,94894.56
2018-02-17T13:31:28.458Z,94900.19
2018-02-17T13:34:31.887Z,94901.09
2018-02-17T13:37:35.168Z,94890.54
2018-02-17T13:40:38.431Z,94899.99
2018-02-17T13:43:41.719Z,94899.91
2018-02-17T13:46:45.013Z,94905.40
2018-02-17T13:49:48.365Z,94888.91
2018-02-17T13:52:51.755Z,94887.20
2018-02-17T13:55:55.782Z,94889.23
2018-02-17T13:58:59.050Z,94893.72
2018-02-17T14:02:03.391Z,94906.08
2018-02-17T14:05:06.674Z,94914.75
2018-02-17T14:08:10.734Z,94914.00
2018-02-17T14:11:14.001Z,94907.56
2018-02-17T14:14:18.035Z,94893.55
2018-02-17T14:17:21.312Z,94884.63
2018-02-17T14:20:24.887Z,94891.16
2018-02-17T14:23:28.350Z,94903.73
2018-02-17T14:26:33.016Z,94897.05
2018-02-17T14:29:36.282Z,94918.52
2018-02-17T14:32:39.622Z,94916.95
2018-02-17T14:35:42.907Z,94914.86
2018-02-17T14:38:46.946Z,94911.52
2018-02-17T14:41:51.226Z,94916.20
2018-02-17T14:44:54.495Z,94912.70
2018-02-17T14:47:58.064Z,94897.05
2018-02-17T14:51:02.090Z,94887.09
2018-02-17T14:54:06.474Z,94888.39
2018-02-17T14:57:09.748Z,94884.47
2018-02-17T15:00:13.147Z,94881.25
2018-02-17T15:03:16.460Z,94885.24
2018-02-17T15:06:19.908Z,94876.08
2018-02-17T15:09:23.280Z,94884.53
2018-02-17T15:12:27.424Z,94876.30
2018-02-17T15:15:31.458Z,94886.96
2018-02-17T15:18:34.762Z,94882.77
2018-02-17T15:21:38.053Z,94880.44
2018-02-17T15:24:41.316Z,94881.07
2018-02-17T15:27:45.350Z,94876.61
2018-02-17T15:30:50.284Z,94883.86
2018-02-17T15:33:53.557Z,94879.49
2018-02-17T15:36:56.821Z,94889.75
2018-02-17T15:40:00.128Z,94874.91
2018-02-17T15:43:03.503Z,94869.23
2018-02-17T15:46:06.993Z,94868.54
2018-02-17T15:49:10.338Z,94873.28
2018-02-17T15:55:40.463Z,94873.91
2018-02-17T15:58:43.728Z,94879.22
2018-02-17T16:01:46.985Z,94880.00
2018-02-17T16:04:50.295Z,94880.45
2018-02-17T16:07:53.539Z,94894.70
2018-02-17T16:10:57.221Z,94895.09
2018-02-17T16:14:00.481Z,94895.45
2018-02-17T16:17:03.754Z,94900.25
2018-02-17T16:20:07.033Z,94906.74
2018-02-17T16:23:10.289Z,94911.33
2018-02-17T16:26:14.499Z,94908.58
2018-02-17T16:29:17.815Z,94905.40
2018-02-17T16:32:21.863Z,94915.33
2018-02-17T16:35:25.121Z,94921.30
2018-02-17T16:38:29.151Z,94924.02
2018-02-17T16:41:32.444Z,94937.61
2018-02-17T16:44:36.786Z,94941.02
2018-02-17T16:47:40.099Z,94942.88
2018-02-17T16:50:44.102Z,94953.92
2018-02-17T16:53:47.385Z,94960.45
2018-02-17T16:56:51.638Z,94969.02
2018-02-17T16:59:54.912Z,94969.77
2018-02-17T17:02:58.178Z,94976.45
2018-02-17T17:06:02.225Z,94983.02
2018-02-17T17:09:05.577Z,94987.98
2018-02-17T17:12:09.669Z,94993.01
2018-02-17T17:15:13.043Z,94999.94
2018-02-17T17:18:16.309Z,95000.11
2018-02-17T17:21:20.341Z,95010.72
2018-02-17T17:24:24.381Z,95018.95
2018-02-17T17:27:27.649Z,95018.42
2018-02-17T17:30:51.200Z,95024.20
2018-02-17T17:33:57.623Z,95028.41
2018-02-17T17:37:00.886Z,95032.57
2018-02-17T17:40:04.433Z,95037.66
2018-02-17T17:43:08.596Z,95043.69
2018-02-17T17:46:12.639Z,95049.43
2018-02-17T17:49:15.908Z,95050.22
2018-02-17T17:52:19.946Z,95055.03
2018-02-17T17:55:23.257Z,95057.52
2018-02-17T17:58:26.513Z,95063.52
2018-02-17T18:01:30.545Z,95072.52
2018-02-17T18:04:33.819Z,95073.20
2018-02-17T18:07:37.257Z,95081.30
2018-02-17T18:10:40.526Z,95086.64
2018-02-17T18:13:44.576Z,95082.59
2018-02-17T18:16:47.879Z,95092.41
2018-02-17T18:19:51.155Z,95098.14
2018-02-17T18:22:54.436Z,95101.41
2018-02-17T18:25:58.489Z,95106.77
2018-02-17T18:29:01.766Z,95110.17
2018-02-17T18:32:05.025Z,95112.66
2018-02-17T18:35:08.347Z,95110.44
2018-02-17T18:38:12.402Z,95112.37
2018-02-17T18:41:16.481Z,95120.49
2018-02-17T18:44:19.764Z,95123.36
2018-02-17T18:47:23.809Z,95122.19
2018-02-17T18:50:27.112Z,95124.02
2018-02-17T18:53:30.370Z,95125.59
2018-02-17T18:56:34.410Z,95131.58
2018-02-17T18:59:37.697Z,95135.76
2018-02-17T19:02:41.477Z,95135.38
2018-02-17T19:05:44.737Z,95134.99
2018-02-17T19:08:48.053Z,95137.59
2018-02-17T19:11:51.343Z,95137.19
2018-02-17T19:14:55.214Z,95141.89
2018-02-17T19:17:59.249Z,95145.78
2018-02-17T19:21:02.529Z,95146.39
2018-02-17T19:24:05.824Z,95156.83
2018-02-17T19:27:09.778Z,95165.45
2018-02-17T19:30:13.069Z,95162.32
2018-02-17T19:33:16.528Z,95160.63
2018-02-17T19:36:19.867Z,95162.05
2018-02-17T19:39:23.139Z,95168.08
2018-02-17T19:42:26.484Z,95172.73
2018-02-17T19:45:29.839Z,95184.14
2018-02-17T19:48:33.156Z,95174.21
2018-02-17T19:51:36.487Z,95174.97
2018-02-17T19:54:39.765Z,95177.73
2018-02-17T19:57:43.429Z,95185.94
2018-02-17T20:00:46.727Z,95189.41
2018-02-17T20:03:59.068Z,95185.77
2018-02-17T20:07:02.873Z,95181.22
2018-02-17T20:10:06.232Z,95183.05
2018-02-17T20:13:10.694Z,95189.55
2018-02-17T20:16:14.631Z,95199.48
2018-02-17T20:19:17.953Z,95204.03
2018-02-17T20:22:22.100Z,95209.27
2018-02-17T20:25:25.425Z,95204.69
2018-02-17T20:28:28.813Z,95209.91
2018-02-17T20:31:32.226Z,95214.56
2018-02-17T20:34:35.533Z,95215.10
2018-02-17T20:37:38.817Z,95227.23
2018-02-17T20:40:42.241Z,95231.66
2018-02-17T20:43:45.532Z,95239.63
2018-02-17T20:46:48.878Z,95242.63
2018-02-17T20:49:53.022Z,95246.31
2018-02-17T20:52:56.318Z,95237.36
2018-02-17T20:55:59.636Z,95248.61
2018-02-17T20:59:02.926Z,95258.32
2018-02-17T21:02:06.284Z,95264.47
2018-02-17T21:05:09.669Z,95267.61
2018-02-17T21:08:13.023Z,95269.73
2018-02-17T21:11:16.339Z,95266.80
2018-02-17T21:14:19.704Z,95274.20
2018-02-17T21:17:23.035Z,95281.00
2018-02-17T21:20:26.331Z,95277.50
2018-02-17T21:23:29.622Z,95285.59
2018-02-17T21:26:33.627Z,95290.02
2018-02-17T21:29:37.989Z,95294.27
2018-02-17T21:32:41.348Z,95300.45
2018-02-17T21:35:44.642Z,95308.55
2018-02-17T21:38:47.925Z,95304.87
2018-02-17T21:41:51.251Z,95303.05
2018-02-17T21:44:54.520Z,95300.20
2018-02-17T21:47:57.813Z,95313.34
2018-02-17T21:51:01.857Z,95306.42
2018-02-17T21:54:05.174Z,95315.80
2018-02-17T21:57:08.457Z,95328.23
2018-02-17T22:00:11.833Z,95330.30
2018-02-17T22:03:15.881Z,95336.83
2018-02-17T22:06:19.182Z,95343.84
2018-02-17T22:09:22.470Z,95355.36
2018-02-17T22:12:25.759Z,95350.54
2018-02-17T22:15:29.071Z,95352.75
2018-02-17T22:18:32.493Z,95362.85
2018-02-17T22:21:35.798Z,95363.44
2018-02-17T22:24:39.068Z,95362.23
2018-02-17T22:27:42.462Z,95367.45
2018-02-17T22:30:45.741Z,95377.61
2018-02-17T22:33:49.335Z,95377.89
2018-02-17T22:36:53.381Z,95383.38
2018-02-17T22:39:56.907Z,95382.19
2018-02-17T22:43:01.806Z,95391.84
2018-02-17T22:46:05.853Z,95384.59
2018-02-17T22:49:09.143Z,95395.66
2018-02-17T22:52:12.430Z,95390.27
2018-02-17T22:55:15.698Z,95392.36
2018-02-17T22:58:21.056Z,95398.73
2018-02-17T23:01:25.129Z,95400.03
2018-02-17T23:04:28.453Z,95402.22
2018-02-17T23:07:31.747Z,95401.16
2018-02-17T23:10:35.023Z,95408.08
2018-02-17T23:13:38.445Z,95412.38
2018-02-17T23:16:43.243Z,95422.39
2018-02-17T23:19:46.552Z,95432.67
2018-02-17T23:22:49.820Z,95431.73
2018-02-17T23:25:53.090Z,95429.12
2018-02-17T23:28:57.131Z,95432.61
2018-02-17T23:32:00.430Z,95431.14
2018-02-17T23:35:03.718Z,95433.20
2018-02-17T23:38:07.010Z,95436.84
2018-02-17T23:41:10.285Z,95438.41
2018-02-17T23:44:14.909Z,95443.23
2018-02-17T23:47:18.261Z,95447.27
2018-02-17T23:50:23.990Z,95456.35
2018-02-17T23:53:27.291Z,95455.56
2018-02-17T23:56:30.625Z,95454.81
2018-02-17T23:59:33.957Z,95459.55
